Time;durP1;ratioP1;P1;durP2;ratioP2;P2;SDS_P1;SDS_P2;PMS_P1;PMS_P2;Temp;Humidity;BMP_temperature;BMP_pressure;BME280_temperature;BME280_humidity;BME280_pressure;Samples;Min_cycle;Max_cycle;Signal;HPM_P1;HPM_P2
2022/10/27 00:00:48;;;;;;;1.75;1.55;;;;;;;11.35;69.11;97369.44;5093528;28;20168;-60
2022/10/27 00:03:17;;;;;;;1.42;1.20;;;;;;;11.33;68.90;97371.25;5093446;28;20047;-61
2022/10/27 00:05:45;;;;;;;5.28;1.58;;;;;;;11.35;68.76;97364.19;5093504;28;20106;-61
2022/10/27 00:08:15;;;;;;;2.00;1.20;;;;;;;11.38;69.03;97368.53;5093402;28;20486;-61
2022/10/27 00:10:44;;;;;;;2.90;1.75;;;;;;;11.39;68.79;97362.38;5093464;28;20082;-61
2022/10/27 00:13:12;;;;;;;1.52;1.40;;;;;;;11.34;69.06;97367.72;5093692;28;20048;-61
2022/10/27 00:15:40;;;;;;;3.60;1.42;;;;;;;11.29;69.12;97356.50;5093316;28;20040;-60
2022/10/27 00:18:11;;;;;;;2.40;1.90;;;;;;;11.28;69.07;97353.94;5093370;28;20040;-60
2022/10/27 00:20:39;;;;;;;3.50;1.63;;;;;;;11.18;69.31;97354.22;5093193;28;20044;-61
2022/10/27 00:23:06;;;;;;;2.40;1.45;;;;;;;11.13;69.79;97353.47;5093255;28;20043;-61
2022/10/27 00:25:34;;;;;;;1.38;1.27;;;;;;;11.14;69.74;97349.97;5092941;28;20520;-61
2022/10/27 00:28:02;;;;;;;1.52;1.17;;;;;;;11.13;69.59;97348.22;5093232;28;20378;-60
2022/10/27 00:30:29;;;;;;;1.73;1.50;;;;;;;11.16;69.69;97348.16;5093335;28;20509;-61
2022/10/27 00:32:57;;;;;;;2.47;1.50;;;;;;;11.14;69.71;97344.72;5093391;28;20054;-60
2022/10/27 00:35:24;;;;;;;1.75;1.10;;;;;;;11.16;69.50;97349.88;5093010;28;20048;-61
2022/10/27 00:37:51;;;;;;;1.67;1.23;;;;;;;11.11;69.68;97342.19;5092999;28;20489;-61
2022/10/27 00:40:19;;;;;;;2.17;1.60;;;;;;;11.12;69.43;97347.38;5092998;28;20482;-60
2022/10/27 00:42:46;;;;;;;2.53;1.27;;;;;;;11.11;69.29;97340.41;5093121;28;20040;-60
2022/10/27 00:45:15;;;;;;;1.67;1.20;;;;;;;11.10;69.36;97343.06;5093168;28;20138;-60
2022/10/27 00:47:43;;;;;;;1.95;1.30;;;;;;;11.07;69.38;97346.63;5092925;28;20452;-60
2022/10/27 00:50:14;;;;;;;2.33;1.20;;;;;;;11.08;69.82;97348.34;5093040;28;20070;-60
2022/10/27 00:52:45;;;;;;;1.88;1.25;;;;;;;11.12;69.66;97342.16;5093041;28;20048;-61
2022/10/27 00:55:15;;;;;;;6.13;1.63;;;;;;;11.12;69.93;97336.03;5094692;28;20478;-62
2022/10/27 00:57:46;;;;;;;2.40;1.70;;;;;;;11.09;69.88;97342.22;5096934;28;20559;-62
2022/10/27 01:00:16;;;;;;;1.73;1.42;;;;;;;11.05;69.71;97339.72;5096973;28;20051;-62
2022/10/27 01:02:44;;;;;;;1.63;1.35;;;;;;;11.04;69.91;97338.88;5096950;28;20474;-62
2022/10/27 01:05:16;;;;;;;2.08;1.25;;;;;;;11.08;70.11;97343.09;5096693;28;20581;-61
2022/10/27 01:07:44;;;;;;;2.10;1.45;;;;;;;11.07;69.73;97341.41;5096936;28;20048;-62
2022/10/27 01:10:12;;;;;;;1.55;1.10;;;;;;;11.15;69.81;97345.56;5096864;28;20566;-62
2022/10/27 01:12:41;;;;;;;1.67;1.23;;;;;;;11.21;69.44;97342.78;5096753;28;20044;-62
2022/10/27 01:15:09;;;;;;;1.38;1.15;;;;;;;11.22;69.48;97347.09;5096915;28;20087;-62
2022/10/27 01:17:48;;;;;;;1.27;1.17;;;;;;;11.26;69.72;97354.00;5096499;28;20451;-62
2022/10/27 01:21:04;;;;;;;1.92;1.70;;;;;;;11.25;69.47;97349.66;5096485;28;20048;-62
2022/10/27 01:23:47;;;;;;;2.25;1.40;;;;;;;11.25;69.55;97347.91;5096492;28;20047;-61
2022/10/27 01:26:39;;;;;;;2.05;1.20;;;;;;;11.26;69.60;97354.00;5096544;28;20143;-62
2022/10/27 01:29:47;;;;;;;1.50;1.27;;;;;;;11.28;69.40;97356.56;5096367;28;20105;-61
2022/10/27 01:32:25;;;;;;;1.55;1.27;;;;;;;11.18;69.28;97361.19;5096289;28;20040;-61
2022/10/27 01:35:01;;;;;;;1.77;1.25;;;;;;;11.16;69.47;97355.13;5096393;28;20044;-62
2022/10/27 01:37:34;;;;;;;2.90;1.42;;;;;;;11.12;69.67;97357.84;5096455;28;20048;-62
2022/10/27 01:40:06;;;;;;;1.98;1.33;;;;;;;11.10;69.36;97361.41;5096242;28;20044;-62
2022/10/27 01:42:40;;;;;;;1.33;1.02;;;;;;;11.06;69.48;97365.00;5096319;28;20044;-62
2022/10/27 01:45:11;;;;;;;4.60;1.60;;;;;;;11.08;69.64;97363.22;5096193;28;20444;-61
2022/10/27 01:47:40;;;;;;;;;;;;;;;11.08;69.59;97360.59;5096545;28;20109;-62
2022/10/27 01:50:09;;;;;;;2.35;1.20;;;;;;;10.99;69.61;97361.72;5096317;28;19965;-61
2022/10/27 01:52:45;;;;;;;4.43;1.40;;;;;;;10.92;70.00;97370.59;5096159;28;20048;-62
2022/10/27 01:55:28;;;;;;;1.90;1.55;;;;;;;10.94;69.89;97369.69;5095726;28;20131;-62
2022/10/27 01:58:15;;;;;;;3.65;1.73;;;;;;;10.93;69.95;97375.78;5095817;28;20048;-61
2022/10/27 02:00:57;;;;;;;2.28;1.40;;;;;;;10.88;70.00;97375.06;5095863;28;20044;-62
2022/10/27 02:03:33;;;;;;;1.55;1.23;;;;;;;10.80;70.30;97377.88;5095721;28;20543;-61
2022/10/27 02:06:08;;;;;;;1.88;1.50;;;;;;;10.80;70.22;97383.09;5095341;28;20079;-62
2022/10/27 02:08:42;;;;;;;1.33;1.23;;;;;;;10.73;70.76;97378.94;5095535;28;20054;-62
2022/10/27 02:11:12;;;;;;;2.63;1.80;;;;;;;10.74;70.63;97381.50;5095647;28;20097;-61
2022/10/27 02:13:44;;;;;;;1.53;1.23;;;;;;;10.74;70.78;97378.91;5095413;28;20121;-61
2022/10/27 02:16:16;;;;;;;3.15;1.63;;;;;;;10.74;70.68;97383.25;5095518;28;20466;-61
2022/10/27 02:18:49;;;;;;;1.83;1.50;;;;;;;10.75;71.03;97392.84;5095405;28;20076;-61
2022/10/27 02:21:18;;;;;;;7.28;1.40;;;;;;;10.74;71.05;97383.25;5095142;28;20048;-62
2022/10/27 02:23:45;;;;;;;2.00;1.38;;;;;;;10.74;70.88;97389.38;5095336;28;20040;-62
2022/10/27 02:26:20;;;;;;;2.45;1.50;;;;;;;10.73;71.00;97386.78;5095472;28;20402;-61
2022/10/27 02:28:51;;;;;;;2.08;1.48;;;;;;;10.73;70.93;97389.41;5095189;28;20044;-61
2022/10/27 02:31:20;;;;;;;;;;;;;;;10.77;71.03;97395.44;5095660;28;20074;-61
2022/10/27 02:33:50;;;;;;;1.30;1.20;;;;;;;10.69;71.09;97393.84;5095226;28;19927;-61
2022/10/27 02:36:18;;;;;;;1.33;1.20;;;;;;;10.69;70.85;97395.63;5095216;28;20489;-62
2022/10/27 02:38:45;;;;;;;1.73;1.33;;;;;;;10.70;71.08;97402.56;5095200;28;20052;-61
2022/10/27 02:41:13;;;;;;;5.32;1.50;;;;;;;10.66;70.95;97401.78;5095047;28;20402;-61
2022/10/27 02:43:40;;;;;;;1.88;1.20;;;;;;;10.66;71.20;97406.16;5094998;28;20048;-62
2022/10/27 02:46:08;;;;;;;1.88;1.35;;;;;;;10.61;71.34;97404.53;5094859;28;20088;-61
2022/10/27 02:48:35;;;;;;;1.77;1.38;;;;;;;10.52;71.43;97409.09;5094925;28;20367;-61
2022/10/27 02:51:04;;;;;;;2.63;1.67;;;;;;;10.47;71.61;97407.47;5094846;28;20048;-61
2022/10/27 02:53:31;;;;;;;4.65;1.40;;;;;;;10.53;71.46;97405.59;5094787;28;20456;-61
2022/10/27 02:55:59;;;;;;;3.08;1.30;;;;;;;10.56;71.10;97411.59;5094945;28;20044;-61
2022/10/27 02:58:28;;;;;;;3.47;1.55;;;;;;;10.58;71.32;97415.06;5094651;28;20044;-61
2022/10/27 03:00:56;;;;;;;2.95;1.40;;;;;;;10.60;71.53;97413.25;5094582;28;20140;-61
2022/10/27 03:03:30;;;;;;;1.42;1.33;;;;;;;10.57;71.28;97422.94;5094592;28;20059;-61
2022/10/27 03:05:59;;;;;;;1.65;1.42;;;;;;;10.54;71.49;97420.41;5094800;28;20048;-61
2022/10/27 03:08:28;;;;;;;1.50;1.13;;;;;;;10.49;71.43;97416.13;5094451;28;20055;-61
2022/10/27 03:10:55;;;;;;;2.55;1.35;;;;;;;10.47;71.43;97417.91;5094363;28;20044;-62
2022/10/27 03:13:22;;;;;;;2.78;1.33;;;;;;;10.50;71.16;97419.59;5094659;28;20054;-62
2022/10/27 03:15:50;;;;;;;2.53;1.42;;;;;;;10.47;71.51;97430.13;5094425;28;20051;-61
2022/10/27 03:18:17;;;;;;;1.30;1.20;;;;;;;10.45;71.58;97424.94;5094229;28;20051;-61
2022/10/27 03:20:45;;;;;;;2.95;1.65;;;;;;;10.47;71.55;97424.91;5094222;28;20043;-61
2022/10/27 03:23:13;;;;;;;1.33;1.23;;;;;;;10.45;71.60;97422.31;5094050;28;20043;-62
2022/10/27 03:25:44;;;;;;;3.05;1.25;;;;;;;10.44;71.53;97422.31;5094160;28;20043;-61
2022/10/27 03:28:11;;;;;;;1.90;1.30;;;;;;;10.40;71.56;97421.53;5094038;28;20048;-62
2022/10/27 03:30:38;;;;;;;1.83;1.58;;;;;;;10.37;71.77;97421.63;5094036;28;20066;-61
2022/10/27 03:33:06;;;;;;;5.43;1.58;;;;;;;10.39;71.43;97427.69;5094036;28;20403;-61
2022/10/27 03:35:33;;;;;;;1.70;1.40;;;;;;;10.39;71.31;97427.69;5094034;28;20508;-61
2022/10/27 03:38:01;;;;;;;1.75;1.50;;;;;;;10.23;71.49;97438.47;5093865;28;20044;-61
2022/10/27 03:40:29;;;;;;;1.20;1.10;;;;;;;10.18;71.38;97427.25;5093979;28;20040;-62
2022/10/27 03:42:58;;;;;;;1.48;1.30;;;;;;;10.14;71.78;97430.00;5093792;28;20090;-61
2022/10/27 03:45:26;;;;;;;1.55;1.30;;;;;;;10.14;71.80;97425.59;5093713;28;20065;-61
2022/10/27 03:48:01;;;;;;;2.85;1.23;;;;;;;10.14;72.05;97430.84;5093848;28;20051;-61
2022/10/27 03:50:28;;;;;;;1.30;1.02;;;;;;;10.11;71.55;97423.06;5093733;28;20116;-61
2022/10/27 03:52:55;;;;;;;7.40;1.40;;;;;;;10.06;71.63;97424.94;5093725;28;20413;-62
2022/10/27 03:55:23;;;;;;;2.88;1.58;;;;;;;10.05;71.36;97434.50;5093684;28;20048;-61
2022/10/27 03:57:51;;;;;;;2.58;1.33;;;;;;;10.03;71.17;97436.31;5093679;28;20482;-61
2022/10/27 04:00:20;;;;;;;2.80;1.50;;;;;;;9.96;71.46;97434.69;5093621;28;20052;-62
2022/10/27 04:02:48;;;;;;;3.00;1.63;;;;;;;9.91;71.67;97447.03;5093544;28;20040;-61
2022/10/27 04:05:15;;;;;;;1.75;1.27;;;;;;;9.79;72.08;97445.53;5093451;28;20040;-61
2022/10/27 04:07:43;;;;;;;1.67;1.23;;;;;;;9.69;72.19;97445.69;5093345;28;20499;-61
2022/10/27 04:10:11;;;;;;;1.25;1.15;;;;;;;9.66;72.00;97445.75;5093570;28;20066;-61
2022/10/27 04:12:48;;;;;;;1.88;1.48;;;;;;;9.60;71.89;97446.75;5093693;28;20102;-61
2022/10/27 04:15:22;;;;;;;2.88;1.30;;;;;;;9.58;71.61;97452.91;5093665;28;20059;-60
2022/10/27 04:17:53;;;;;;;3.13;1.42;;;;;;;9.51;71.54;97449.53;5093375;28;20490;-61
2022/10/27 04:20:20;;;;;;;3.55;1.30;;;;;;;9.52;71.89;97460.84;5093460;28;20048;-61
2022/10/27 04:22:47;;;;;;;1.25;1.15;;;;;;;9.48;71.73;97458.28;5093251;28;20093;-61
2022/10/27 04:25:15;;;;;;;3.10;1.70;;;;;;;9.46;72.07;97460.06;5093204;28;20051;-61
2022/10/27 04:27:42;;;;;;;1.20;1.10;;;;;;;9.45;72.21;97452.28;5093182;28;20055;-61
2022/10/27 04:30:10;;;;;;;2.13;1.52;;;;;;;9.45;71.52;97460.97;5092832;28;20047;-61
2022/10/27 04:32:41;;;;;;;2.10;1.38;;;;;;;9.44;71.44;97459.25;5093293;28;20131;-61
2022/10/27 04:35:10;;;;;;;2.30;1.55;;;;;;;9.39;71.74;97458.47;5093219;28;20048;-61
2022/10/27 04:37:37;;;;;;;2.10;1.15;;;;;;;9.34;72.27;97465.53;5093192;28;20047;-61
2022/10/27 04:40:06;;;;;;;1.33;1.23;;;;;;;9.27;72.58;97469.97;5093199;28;20051;-61
2022/10/27 04:42:34;;;;;;;2.78;1.30;;;;;;;9.21;72.94;97476.19;5093014;28;20063;-61
2022/10/27 04:45:01;;;;;;;1.35;1.20;;;;;;;9.19;72.29;97471.88;5093052;28;20465;-60
2022/10/27 04:47:28;;;;;;;2.83;1.55;;;;;;;9.18;71.65;97475.41;5093011;28;20062;-61
2022/10/27 04:49:56;;;;;;;1.75;1.20;;;;;;;9.16;72.18;97477.16;5093103;28;20055;-61
2022/10/27 04:52:25;;;;;;;2.08;1.45;;;;;;;9.14;72.18;97485.00;5093046;28;20041;-60
2022/10/27 04:54:53;;;;;;;2.00;1.40;;;;;;;9.14;72.55;97484.13;5092971;28;20044;-60
2022/10/27 04:57:20;;;;;;;1.83;1.33;;;;;;;9.12;72.75;97489.38;5093090;28;20086;-60
2022/10/27 04:59:47;;;;;;;1.25;1.15;;;;;;;9.12;72.98;97488.53;5093046;28;20059;-60
2022/10/27 05:02:15;;;;;;;1.85;1.30;;;;;;;9.16;72.78;97492.81;5092834;28;20052;-61
2022/10/27 05:04:42;;;;;;;11.98;2.13;;;;;;;9.17;72.92;97491.94;5092799;28;20052;-61
2022/10/27 05:07:09;;;;;;;2.63;1.20;;;;;;;9.22;72.90;97492.72;5092770;28;20467;-60
2022/10/27 05:09:38;;;;;;;3.50;1.55;;;;;;;9.31;73.24;97496.91;5092875;28;20139;-61
2022/10/27 05:12:06;;;;;;;3.13;1.30;;;;;;;9.38;72.64;97490.69;5092900;28;20040;-60
2022/10/27 05:14:33;;;;;;;1.42;1.33;;;;;;;9.44;72.47;97500.16;5092873;28;20076;-61
2022/10/27 05:17:00;;;;;;;2.35;1.58;;;;;;;9.56;72.00;97506.91;5093032;28;20059;-60
2022/10/27 05:19:27;;;;;;;1.35;1.23;;;;;;;9.67;72.12;97512.81;5092760;28;20040;-61
2022/10/27 05:21:55;;;;;;;6.75;1.58;;;;;;;9.80;71.97;97513.44;5092569;28;20494;-61
2022/10/27 05:24:22;;;;;;;5.00;1.63;;;;;;;10.18;71.98;97510.06;5092704;28;20127;-60
2022/10/27 05:26:51;;;;;;;3.05;1.38;;;;;;;11.40;68.85;97515.16;5092891;28;20048;-60
2022/10/27 05:29:19;;;;;;;3.53;1.65;;;;;;;12.89;63.89;97515.34;5092894;28;20126;-61
2022/10/27 05:31:46;;;;;;;9.23;1.67;;;;;;;14.32;58.55;97512.22;5092840;28;20048;-61
2022/10/27 05:34:14;;;;;;;3.10;1.40;;;;;;;15.72;54.33;97519.00;5092734;28;20401;-61
2022/10/27 05:36:42;;;;;;;2.85;1.30;;;;;;;17.00;50.33;97522.91;5092556;28;20436;-61
2022/10/27 05:39:09;;;;;;;1.52;1.20;;;;;;;17.77;47.79;97520.03;5092565;28;20055;-61
2022/10/27 05:41:38;;;;;;;2.17;1.27;;;;;;;18.46;46.15;97524.41;5092943;28;20051;-61
2022/10/27 05:44:07;;;;;;;1.70;0.98;;;;;;;19.57;44.14;97527.91;5096074;28;20052;-62
2022/10/27 05:46:35;;;;;;;3.60;0.95;;;;;;;20.09;42.38;97532.88;5095922;28;20478;-62
2022/10/27 05:49:02;;;;;;;0.93;0.90;;;;;;;20.11;42.48;97528.31;5096050;28;20051;-62
2022/10/27 05:51:29;;;;;;;0.93;0.93;;;;;;;20.61;41.63;97532.34;5095996;28;20071;-62
2022/10/27 05:53:57;;;;;;;3.55;3.25;;;;;;;21.75;39.91;97540.97;5096094;28;20044;-62
2022/10/27 05:56:24;;;;;;;1.00;0.90;;;;;;;23.07;37.32;97536.28;5095856;28;20551;-61
2022/10/27 05:58:51;;;;;;;1.25;1.10;;;;;;;24.23;35.14;97529.41;5095891;28;20059;-62
2022/10/27 06:01:20;;;;;;;1.17;1.02;;;;;;;25.07;33.85;97540.66;5095766;28;20474;-61
2022/10/27 06:03:47;;;;;;;1.20;0.88;;;;;;;26.05;31.61;97544.22;5095690;28;20062;-61
2022/10/27 06:06:15;;;;;;;1.35;0.70;;;;;;;26.87;30.56;97542.50;5095929;28;20048;-61
2022/10/27 06:08:42;;;;;;;1.40;0.80;;;;;;;27.63;29.96;97550.91;5095765;28;20210;-61
2022/10/27 06:11:10;;;;;;;1.48;0.98;;;;;;;28.42;28.97;97544.59;5095691;28;20413;-59
2022/10/27 06:13:37;;;;;;;0.98;0.88;;;;;;;28.98;27.81;97541.06;5095692;28;20055;-61
2022/10/27 06:16:06;;;;;;;2.65;0.90;;;;;;;29.50;27.31;97551.16;5095472;28;20478;-61
2022/10/27 06:18:35;;;;;;;1.45;1.00;;;;;;;29.74;26.47;97548.88;5095317;28;20044;-61
2022/10/27 06:21:02;;;;;;;1.00;0.73;;;;;;;29.59;26.47;97548.59;5095543;28;20059;-61
2022/10/27 06:23:29;;;;;;;0.75;0.75;;;;;;;29.52;26.66;97548.31;5095419;28;20101;-61
2022/10/27 06:25:57;;;;;;;1.20;0.80;;;;;;;29.85;26.16;97553.16;5095319;28;20048;-60
2022/10/27 06:28:24;;;;;;;2.95;0.90;;;;;;;30.27;25.25;97555.19;5095064;28;20088;-61
2022/10/27 06:30:52;;;;;;;1.13;0.80;;;;;;;30.80;24.88;97553.41;5095204;28;20410;-61
2022/10/27 06:33:19;;;;;;;1.02;0.90;;;;;;;31.59;24.07;97563.06;5095176;28;20105;-61
2022/10/27 06:35:47;;;;;;;0.85;0.82;;;;;;;32.17;22.73;97554.94;5095090;28;20044;-61
2022/10/27 06:38:15;;;;;;;3.22;0.90;;;;;;;32.82;22.17;97554.94;5095101;28;20105;-61
2022/10/27 06:40:43;;;;;;;0.80;0.80;;;;;;;33.28;21.82;97561.47;5095158;28;20459;-61
2022/10/27 06:43:11;;;;;;;1.33;1.00;;;;;;;33.37;21.29;97565.84;5095001;28;20086;-61
2022/10/27 06:45:39;;;;;;;1.30;0.93;;;;;;;32.84;21.77;97560.19;5094956;28;20044;-61
2022/10/27 06:48:08;;;;;;;1.77;0.80;;;;;;;32.25;22.71;97554.94;5094744;28;20139;-61
2022/10/27 06:50:36;;;;;;;1.20;1.07;;;;;;;31.18;23.35;97561.13;5094870;28;20078;-61
2022/10/27 06:53:05;;;;;;;2.97;0.90;;;;;;;30.31;24.15;97565.66;5094461;28;20105;-61
2022/10/27 06:55:32;;;;;;;1.40;0.90;;;;;;;29.47;25.01;97569.50;5094885;28;20051;-61
2022/10/27 06:58:00;;;;;;;1.45;1.05;;;;;;;28.57;26.67;97571.00;5094726;28;20116;-61
2022/10/27 07:00:27;;;;;;;0.70;0.70;;;;;;;27.59;27.70;97571.00;5094676;28;20052;-60
2022/10/27 07:02:54;;;;;;;0.80;0.80;;;;;;;26.67;28.48;97570.25;5094929;28;20051;-60
2022/10/27 07:05:21;;;;;;;1.35;1.10;;;;;;;25.77;29.92;97570.72;5094737;28;20052;-61
2022/10/27 07:07:50;;;;;;;1.25;0.93;;;;;;;24.96;32.29;97576.28;5094611;28;20044;-61
2022/10/27 07:10:20;;;;;;;1.83;1.27;;;;;;;24.27;33.20;97571.94;5094606;28;20105;-60
2022/10/27 07:12:54;;;;;;;1.10;0.95;;;;;;;23.81;34.96;97572.66;5094495;28;20048;-61
2022/10/27 07:15:22;;;;;;;1.17;0.95;;;;;;;23.57;35.61;97578.88;5094366;28;20055;-61
2022/10/27 07:17:54;;;;;;;1.85;1.10;;;;;;;23.31;35.86;97579.00;5094377;28;20099;-61
2022/10/27 07:20:21;;;;;;;1.92;1.23;;;;;;;23.16;36.12;97578.31;5094141;28;20040;-61
2022/10/27 07:22:48;;;;;;;2.20;1.08;;;;;;;23.35;35.28;97580.47;5094143;28;20215;-60
2022/10/27 07:25:16;;;;;;;1.15;1.00;;;;;;;24.04;35.28;97583.41;5094035;28;20052;-60
2022/10/27 07:27:52;;;;;;;1.65;1.20;;;;;;;25.76;32.31;97585.94;5094125;28;20048;-60
2022/10/27 07:30:20;;;;;;;2.13;1.20;;;;;;;27.52;28.92;97580.63;5094079;28;20059;-61
2022/10/27 07:32:48;;;;;;;1.48;0.70;;;;;;;28.37;27.72;97585.38;5094025;28;20048;-61
2022/10/27 07:35:15;;;;;;;1.75;1.15;;;;;;;28.70;26.22;97573.34;5094017;28;20048;-61
2022/10/27 07:37:44;;;;;;;1.27;0.88;;;;;;;29.41;25.32;97583.59;5093997;28;20052;-61
2022/10/27 07:40:12;;;;;;;2.63;1.00;;;;;;;30.44;24.48;97592.19;5093876;28;20048;-61
2022/10/27 07:42:48;;;;;;;1.00;0.90;;;;;;;30.55;23.77;97591.91;5093822;28;20040;-61
2022/10/27 07:45:18;;;;;;;0.88;0.68;;;;;;;30.94;23.83;97582.50;5093957;28;20052;-61
2022/10/27 07:47:47;;;;;;;1.23;0.95;;;;;;;31.13;23.09;97584.09;5094050;28;20055;-61
2022/10/27 07:50:14;;;;;;;2.40;1.10;;;;;;;31.06;23.45;97574.94;5093731;28;20048;-61
2022/10/27 07:52:43;;;;;;;1.63;0.95;;;;;;;30.68;23.69;97590.63;5093665;28;20493;-61
2022/10/27 07:55:11;;;;;;;1.65;0.90;;;;;;;29.85;24.94;97588.22;5093651;28;20101;-61
2022/10/27 07:57:38;;;;;;;2.83;1.00;;;;;;;29.45;25.20;97590.34;5093595;28;20052;-60
2022/10/27 08:00:10;;;;;;;1.95;1.20;;;;;;;29.18;25.52;97587.56;5093901;28;20069;-61
2022/10/27 08:02:37;;;;;;;1.45;0.98;;;;;;;29.05;25.26;97587.94;5093696;28;20048;-60
2022/10/27 08:05:05;;;;;;;1.70;0.90;;;;;;;28.67;25.39;97585.25;5092878;28;20117;-61
2022/10/27 08:07:32;;;;;;;2.17;1.00;;;;;;;28.04;26.40;97582.16;5093647;28;20094;-61
2022/10/27 08:09:59;;;;;;;1.13;1.02;;;;;;;27.57;27.52;97582.88;5093485;28;20080;-60
2022/10/27 08:12:26;;;;;;;1.38;0.95;;;;;;;27.23;28.18;97578.75;5093435;28;20455;-61
2022/10/27 08:14:53;;;;;;;1.10;1.00;;;;;;;26.77;28.42;97576.50;5093531;28;20068;-61
2022/10/27 08:17:22;;;;;;;1.00;0.90;;;;;;;26.13;29.40;97584.66;5093410;28;20052;-60
2022/10/27 08:19:49;;;;;;;1.55;0.98;;;;;;;25.81;30.06;97583.72;5093374;28;20048;-61
2022/10/27 08:22:16;;;;;;;1.48;0.98;;;;;;;25.58;30.70;97586.47;5093017;28;20044;-61
2022/10/27 08:24:44;;;;;;;1.13;1.02;;;;;;;25.37;30.34;97589.09;5093449;28;20493;-61
2022/10/27 08:27:11;;;;;;;0.93;0.80;;;;;;;25.36;30.80;97587.41;5093127;28;20048;-60
2022/10/27 08:29:38;;;;;;;1.05;0.80;;;;;;;25.32;30.48;97585.97;5093320;28;20044;-60
2022/10/27 08:32:05;;;;;;;1.80;1.00;;;;;;;25.29;29.78;97587.06;5093255;28;20091;-60
2022/10/27 08:34:34;;;;;;;0.95;0.88;;;;;;;25.18;30.85;97584.41;5093249;28;20059;-61
2022/10/27 08:37:01;;;;;;;1.20;1.08;;;;;;;24.89;30.17;97582.28;5093226;28;20097;-61
2022/10/27 08:39:29;;;;;;;0.68;0.68;;;;;;;24.95;30.02;97584.47;5093098;28;20125;-61
2022/10/27 08:42:04;;;;;;;2.13;0.90;;;;;;;25.09;30.39;97575.31;5093337;28;20086;-60
2022/10/27 08:44:35;;;;;;;0.80;0.80;;;;;;;25.06;30.38;97579.09;5093545;28;20044;-60
2022/10/27 08:47:04;;;;;;;3.17;1.02;;;;;;;25.08;30.12;97582.47;5093048;28;20074;-60
2022/10/27 08:49:40;;;;;;;5.07;1.45;;;;;;;24.85;29.60;97581.66;5093096;28;20056;-61
2022/10/27 08:52:15;;;;;;;1.60;1.10;;;;;;;24.86;30.31;97586.00;5093032;28;20142;-61
2022/10/27 08:54:48;;;;;;;1.13;0.90;;;;;;;24.83;30.71;97575.59;5092905;28;20505;-61
2022/10/27 08:57:22;;;;;;;1.02;0.77;;;;;;;24.68;30.21;97573.13;5092827;28;20044;-60
2022/10/27 08:59:53;;;;;;;1.77;0.73;;;;;;;24.45;30.52;97569.63;5092888;28;20056;-60
2022/10/27 09:02:44;;;;;;;0.85;0.82;;;;;;;24.44;30.66;97574.13;5092979;28;20494;-60
2022/10/27 09:05:34;;;;;;;1.20;1.10;;;;;;;24.26;29.39;97568.38;5062045;28;20129;-61
2022/10/27 09:08:10;;;;;;;0.85;0.77;;;;;;;24.16;30.55;97567.41;5092802;28;20483;-60
2022/10/27 09:10:44;;;;;;;0.82;0.57;;;;;;;24.23;29.52;97569.50;5092980;28;20132;-60
2022/10/27 09:13:34;;;;;;;1.42;0.90;;;;;;;23.71;30.15;97572.50;5092826;28;20482;-60
2022/10/27 09:16:05;;;;;;;1.45;1.08;;;;;;;23.66;30.07;97571.16;5094021;28;20051;-59
2022/10/27 09:18:37;;;;;;;1.27;0.82;;;;;;;23.52;30.81;97567.72;5096648;28;20075;-60
2022/10/27 09:21:13;;;;;;;2.88;1.08;;;;;;;23.53;30.50;97566.75;5096388;28;20071;-61
2022/10/27 09:23:45;;;;;;;0.80;0.80;;;;;;;23.42;30.89;97562.19;5096512;28;20044;-60
2022/10/27 09:26:16;;;;;;;2.08;1.08;;;;;;;23.29;31.24;97559.56;5096423;28;20486;-59
2022/10/27 09:28:48;;;;;;;1.05;0.80;;;;;;;23.29;31.03;97561.38;5096359;28;20497;-60
2022/10/27 09:31:19;;;;;;;1.13;1.00;;;;;;;23.07;31.28;97561.16;5096324;28;20051;-60
2022/10/27 09:33:52;;;;;;;1.15;1.05;;;;;;;22.69;31.33;97562.97;5096496;28;20488;-61
2022/10/27 09:36:23;;;;;;;1.45;1.35;;;;;;;22.70;31.43;97566.50;5096453;28;20081;-61
2022/10/27 09:38:50;;;;;;;1.13;1.00;;;;;;;22.79;31.57;97551.66;5096571;28;20080;-61
2022/10/27 09:41:17;;;;;;;1.33;1.15;;;;;;;22.83;32.12;97545.97;5096193;28;20044;-61
2022/10/27 09:43:44;;;;;;;1.08;0.95;;;;;;;22.82;30.98;97551.44;5096116;28;20436;-60
2022/10/27 09:46:19;;;;;;;1.80;1.10;;;;;;;22.74;30.71;97551.97;5096097;28;20048;-61
2022/10/27 09:48:47;;;;;;;1.27;1.00;;;;;;;22.68;30.66;97542.59;5095962;28;20056;-60
2022/10/27 09:51:22;;;;;;;1.65;1.10;;;;;;;22.63;30.99;97543.91;5095985;28;20489;-61
2022/10/27 09:53:51;;;;;;;1.75;1.20;;;;;;;22.67;31.79;97546.22;5095982;28;20078;-60
2022/10/27 09:56:24;;;;;;;1.25;1.00;;;;;;;22.76;31.22;97536.72;5095927;28;20084;-60
2022/10/27 09:59:01;;;;;;;1.17;0.70;;;;;;;22.76;31.38;97543.88;5095981;28;20402;-60
2022/10/27 10:01:48;;;;;;;1.80;1.05;;;;;;;22.46;30.84;97540.59;5095874;28;20477;-60
2022/10/27 10:04:21;;;;;;;1.17;1.08;;;;;;;22.47;31.42;97537.81;5095688;28;20398;-60
2022/10/27 10:06:55;;;;;;;2.03;1.00;;;;;;;22.59;31.79;97540.59;5095608;28;20044;-61
2022/10/27 10:09:25;;;;;;;3.05;1.05;;;;;;;22.54;30.66;97532.91;5095654;28;20048;-61
2022/10/27 10:12:11;;;;;;;1.70;0.90;;;;;;;22.59;30.82;97532.59;5095751;28;20048;-61
2022/10/27 10:14:39;;;;;;;1.55;0.80;;;;;;;22.52;30.83;97537.50;5095537;28;20135;-61
2022/10/27 10:17:20;;;;;;;1.20;0.90;;;;;;;22.57;30.05;97529.16;5095480;28;20044;-61
2022/10/27 10:19:48;;;;;;;0.88;0.88;;;;;;;22.68;30.06;97523.09;5095463;28;20052;-61
2022/10/27 10:22:23;;;;;;;0.80;0.80;;;;;;;22.64;30.48;97518.94;5095276;28;20052;-61
2022/10/27 10:24:50;;;;;;;1.10;0.90;;;;;;;22.51;30.85;97533.13;5095354;28;20052;-61
2022/10/27 10:27:27;;;;;;;1.10;0.82;;;;;;;22.42;29.93;97533.75;5094674;28;20044;-62
2022/10/27 10:29:56;;;;;;;0.85;0.85;;;;;;;22.37;29.38;97531.44;5095460;28;20062;-61
2022/10/27 10:32:25;;;;;;;0.60;0.60;;;;;;;22.41;30.25;97524.94;5095204;28;20051;-61
2022/10/27 10:34:53;;;;;;;1.08;0.77;;;;;;;22.49;29.97;97523.53;5095180;28;20136;-61
2022/10/27 10:37:33;;;;;;;1.77;0.90;;;;;;;22.42;29.92;97526.63;5095003;28;20573;-61
2022/10/27 10:40:26;;;;;;;1.98;0.93;;;;;;;22.44;30.93;97527.38;5095205;28;20066;-62
2022/10/27 10:43:13;;;;;;;1.92;0.90;;;;;;;22.46;30.24;97519.28;5095101;28;20048;-61
2022/10/27 10:45:42;;;;;;;0.98;0.88;;;;;;;22.56;29.95;97511.47;5095065;28;20489;-61
2022/10/27 10:48:30;;;;;;;0.90;0.85;;;;;;;22.62;30.09;97520.84;5094751;28;20044;-61
2022/10/27 10:50:58;;;;;;;1.13;1.00;;;;;;;22.58;30.76;97514.91;5094896;28;20066;-61
2022/10/27 10:53:31;;;;;;;3.03;0.93;;;;;;;22.41;30.71;97505.41;5094897;28;20051;-62
2022/10/27 10:56:03;;;;;;;0.60;0.60;;;;;;;22.41;30.62;97518.75;5094832;28;20097;-62
2022/10/27 10:58:33;;;;;;;1.70;0.85;;;;;;;22.36;30.42;97523.56;5094694;28;20490;-62
2022/10/27 11:01:03;;;;;;;1.30;0.80;;;;;;;22.31;30.77;97518.56;5094772;28;20056;-62
2022/10/27 11:03:34;;;;;;;1.75;1.02;;;;;;;22.32;31.28;97514.91;5094556;28;20498;-61
2022/10/27 11:06:04;;;;;;;1.48;0.85;;;;;;;22.46;31.04;97512.13;5094523;28;20074;-61
2022/10/27 11:08:38;;;;;;;1.55;0.80;;;;;;;22.66;30.79;97515.19;5094494;28;20056;-61
2022/10/27 11:11:13;;;;;;;0.80;0.80;;;;;;;22.64;29.96;97511.81;5094450;28;20052;-61
2022/10/27 11:13:44;;;;;;;1.65;0.80;;;;;;;22.66;30.19;97511.69;5094604;28;20050;-61
2022/10/27 11:16:13;;;;;;;1.23;0.93;;;;;;;22.54;30.63;97513.38;5094550;28;20055;-61
2022/10/27 11:18:48;;;;;;;1.35;1.00;;;;;;;22.21;30.28;97505.00;5094005;28;20051;-61
2022/10/27 11:21:31;;;;;;;1.25;0.70;;;;;;;22.19;30.41;97506.94;5094111;28;20114;-61
2022/10/27 11:24:02;;;;;;;1.67;0.82;;;;;;;22.26;30.71;97505.56;5094271;28;20044;-61
2022/10/27 11:26:34;;;;;;;1.92;1.08;;;;;;;22.30;30.85;97501.69;5094459;28;20055;-61
2022/10/27 11:29:18;;;;;;;1.73;1.33;;;;;;;22.41;30.99;97500.09;5094147;28;20059;-62
2022/10/27 11:31:55;;;;;;;0.75;0.75;;;;;;;22.50;30.75;97495.91;5094163;28;20052;-61
2022/10/27 11:34:35;;;;;;;0.85;0.85;;;;;;;22.54;30.03;97495.56;5094103;28;20070;-61
2022/10/27 11:37:06;;;;;;;1.42;1.00;;;;;;;22.58;30.45;97490.91;5094206;28;20058;-62
2022/10/27 11:39:47;;;;;;;1.33;0.77;;;;;;;22.76;30.04;97486.06;5092968;28;20044;-61
2022/10/27 11:42:26;;;;;;;2.42;1.00;;;;;;;22.79;30.06;97492.97;5094065;28;20044;-60
2022/10/27 11:45:05;;;;;;;1.13;1.00;;;;;;;22.67;30.93;97487.56;5094223;28;20171;-62
2022/10/27 11:47:39;;;;;;;2.75;1.05;;;;;;;22.59;30.35;97492.59;5093972;28;20127;-61
2022/10/27 11:50:13;;;;;;;1.20;0.95;;;;;;;22.55;31.02;97488.44;5094073;28;20130;-61